createdAt,value
2022-08-02T00:26:39.218Z,0.60
2022-08-02T00:29:32.057Z,0.88
2022-08-02T00:32:11.823Z,0.57
2022-08-02T00:35:05.520Z,0.70
2022-08-02T00:37:40.045Z,0.70
2022-08-02T00:40:19.029Z,0.60
2022-08-02T00:43:01.673Z,0.60
2022-08-02T00:46:03.552Z,0.90
2022-08-02T00:48:40.741Z,0.88
2022-08-02T00:51:23.692Z,0.70
2022-08-02T00:54:10.324Z,0.60
2022-08-02T00:56:53.866Z,0.60
2022-08-02T00:59:56.421Z,0.82
2022-08-02T01:02:45.308Z,0.60
2022-08-02T01:05:28.020Z,0.70
2022-08-02T01:08:29.376Z,0.60
2022-08-02T01:11:31.431Z,0.80
2022-08-02T01:14:17.587Z,0.77
2022-08-02T01:17:14.685Z,0.65
2022-08-02T01:20:25.876Z,1.23
2022-08-02T01:23:37.489Z,0.75
2022-08-02T01:26:51.579Z,0.80
2022-08-02T01:32:57.333Z,0.70
2022-08-02T01:35:50.705Z,0.60
2022-08-02T01:38:38.002Z,0.70
2022-08-02T01:41:34.495Z,0.80
2022-08-02T01:44:12.038Z,1.45
2022-08-02T01:46:47.316Z,0.90
2022-08-02T01:49:25.635Z,0.82
2022-08-02T01:52:17.420Z,0.90
2022-08-02T01:55:18.556Z,0.73
2022-08-02T02:01:15.092Z,0.70
2022-08-02T02:04:02.374Z,0.70
2022-08-02T02:06:34.430Z,0.80
2022-08-02T02:09:06.024Z,1.00
2022-08-02T02:12:06.166Z,0.82
2022-08-02T02:14:42.652Z,0.80
2022-08-02T02:17:50.769Z,0.80
2022-08-02T02:20:34.807Z,1.17
2022-08-02T02:23:13.407Z,1.00
2022-08-02T03:55:21.750Z,1.20
2022-08-02T03:58:17.400Z,0.95
2022-08-02T05:58:35.408Z,1.42
2022-08-02T06:31:09.598Z,1.40
2022-08-02T06:33:38.057Z,2.33
2022-08-02T06:36:14.687Z,1.42
2022-08-02T06:40:01.534Z,1.42
2022-08-02T06:43:02.537Z,1.80
2022-08-02T06:45:32.177Z,1.45
2022-08-02T06:52:27.391Z,1.30
2022-08-02T06:55:04.456Z,1.30
2022-08-02T06:57:57.965Z,1.60
2022-08-02T07:00:35.594Z,1.10
2022-08-02T10:45:04.761Z,0.82
2022-08-02T15:07:55.768Z,0.50
2022-08-02T15:10:24.071Z,1.00
2022-08-02T15:12:51.118Z,0.60
2022-08-02T15:15:18.696Z,0.60
2022-08-02T15:23:34.823Z,0.70
2022-08-02T15:26:06.089Z,0.55
2022-08-02T15:28:34.183Z,0.60
2022-08-02T15:31:04.416Z,0.40
2022-08-02T15:33:32.228Z,0.50
2022-08-02T15:35:59.650Z,0.50
2022-08-02T15:38:26.453Z,0.70
2022-08-02T15:40:53.612Z,0.60
2022-08-02T15:43:22.389Z,0.52
2022-08-02T15:46:09.993Z,0.60
2022-08-02T15:49:00.982Z,0.60
2022-08-02T15:51:30.722Z,0.70
2022-08-02T15:53:58.932Z,0.73
2022-08-02T15:56:26.535Z,0.65
2022-08-02T15:58:57.063Z,0.57
2022-08-02T16:01:37.127Z,0.50
2022-08-02T16:04:07.387Z,0.50
2022-08-02T16:06:35.890Z,0.57
2022-08-02T16:09:03.418Z,0.50
2022-08-02T16:11:31.765Z,0.50
2022-08-02T16:13:59.476Z,0.40
2022-08-02T16:21:23.453Z,0.70
2022-08-02T16:23:59.066Z,0.60
2022-08-02T16:26:34.419Z,0.60
2022-08-02T16:29:02.948Z,0.85
2022-08-02T16:31:32.034Z,0.50
2022-08-02T16:34:00.625Z,0.60
2022-08-02T16:36:30.217Z,0.40
2022-08-02T16:38:57.828Z,0.60
2022-08-02T16:41:50.966Z,0.63
2022-08-02T16:44:29.760Z,0.65
2022-08-02T16:47:12.201Z,0.47
2022-08-02T16:50:06.961Z,0.57
2022-08-02T16:52:33.129Z,0.60
2022-08-02T16:55:01.692Z,0.70
2022-08-02T16:57:42.928Z,0.50
2022-08-02T17:00:15.614Z,0.60
2022-08-02T17:02:47.000Z,0.52
2022-08-02T17:05:17.558Z,0.60
2022-08-02T17:08:08.203Z,0.50
2022-08-02T17:10:37.571Z,0.45
2022-08-02T17:13:11.580Z,0.40
2022-08-02T17:16:16.703Z,0.73
2022-08-02T17:18:37.444Z,0.50
2022-08-02T17:21:11.114Z,0.40
2022-08-02T17:24:02.779Z,0.50
2022-08-02T17:26:26.378Z,0.60
2022-08-02T17:29:14.646Z,0.55
2022-08-02T17:31:46.487Z,0.45
2022-08-02T17:34:32.331Z,0.50
2022-08-02T17:37:00.936Z,0.50
2022-08-02T17:39:34.319Z,0.60
2022-08-02T17:42:10.886Z,0.50
2022-08-02T17:44:42.781Z,0.50
2022-08-02T17:47:17.825Z,0.40
2022-08-02T17:49:48.015Z,0.65
2022-08-02T17:52:52.382Z,0.50
2022-08-02T17:55:06.286Z,0.60
2022-08-02T17:57:55.279Z,0.50
2022-08-02T18:00:22.562Z,0.50
2022-08-02T18:02:55.242Z,0.52
2022-08-02T18:05:40.165Z,0.60
2022-08-02T18:08:17.313Z,0.60
2022-08-02T18:10:48.576Z,0.70
2022-08-02T18:13:15.664Z,0.47
2022-08-02T18:15:45.492Z,0.60
2022-08-02T18:18:14.541Z,0.60
2022-08-02T18:20:42.491Z,0.70
2022-08-02T18:23:13.763Z,0.70
2022-08-02T18:25:46.029Z,0.75
2022-08-02T18:28:17.280Z,0.80
2022-08-02T18:30:45.903Z,0.70
2022-08-02T18:33:55.551Z,0.60
2022-08-02T18:36:00.032Z,0.68
2022-08-02T18:38:29.752Z,0.47
2022-08-02T18:40:59.354Z,0.70
2022-08-02T18:43:29.588Z,0.70
2022-08-02T18:46:06.539Z,0.50
2022-08-02T18:48:46.750Z,0.50
2022-08-02T18:51:15.835Z,0.52
2022-08-02T18:53:44.413Z,0.40
2022-08-02T18:56:20.057Z,0.50
2022-08-02T18:58:56.701Z,0.70
2022-08-02T19:01:34.002Z,0.70
2022-08-02T19:04:04.944Z,0.50
2022-08-02T19:06:32.501Z,0.50
2022-08-02T19:09:05.434Z,0.50
2022-08-02T19:11:41.039Z,0.40
2022-08-02T19:14:09.329Z,0.70
2022-08-02T19:16:38.133Z,0.68
2022-08-02T19:19:10.544Z,0.50
2022-08-02T19:22:26.685Z,0.65
2022-08-02T19:24:37.855Z,0.57
2022-08-02T19:27:14.067Z,0.80
2022-08-02T19:29:48.816Z,0.50
2022-08-02T19:32:39.870Z,0.82
2022-08-02T19:35:19.748Z,0.57
2022-08-02T19:38:09.127Z,0.50
2022-08-02T19:40:38.837Z,0.50
2022-08-02T19:44:25.693Z,0.68
2022-08-02T19:45:57.481Z,0.70
2022-08-02T19:48:27.287Z,0.90
2022-08-02T19:51:00.707Z,0.50
2022-08-02T19:53:48.251Z,0.70
2022-08-02T19:56:19.512Z,0.70
2022-08-02T19:58:54.421Z,0.50
2022-08-02T20:01:37.211Z,0.60
2022-08-02T20:04:13.660Z,0.80
2022-08-02T20:06:47.579Z,0.60
2022-08-02T20:09:21.216Z,0.60
2022-08-02T20:11:54.201Z,0.73
2022-08-02T20:14:27.595Z,0.60
2022-08-02T20:16:58.302Z,0.85
2022-08-02T20:19:29.151Z,0.50
2022-08-02T20:21:59.657Z,0.60
2022-08-02T20:24:29.329Z,0.70
2022-08-02T20:26:59.295Z,0.63
2022-08-02T20:35:09.906Z,0.60
2022-08-02T20:38:01.284Z,0.60
2022-08-02T20:40:26.161Z,1.10
2022-08-02T20:42:54.782Z,0.60
2022-08-02T20:45:24.383Z,0.52
2022-08-02T20:47:54.981Z,0.43
2022-08-02T20:50:44.665Z,0.60
2022-08-02T20:53:23.992Z,0.60
2022-08-02T20:55:55.945Z,0.60
2022-08-02T20:58:27.299Z,2.25
2022-08-02T21:00:59.694Z,0.73
2022-08-02T21:03:39.516Z,0.70
2022-08-02T21:06:11.462Z,0.80
2022-08-02T21:08:46.055Z,0.75
2022-08-02T21:11:14.619Z,0.70
2022-08-02T21:16:29.478Z,0.70
2022-08-02T21:18:59.711Z,1.00
2022-08-02T21:21:27.425Z,1.05
2022-08-02T21:23:55.265Z,0.63
2022-08-02T21:26:25.889Z,0.90
2022-08-02T21:28:56.820Z,0.85
2022-08-02T21:31:30.049Z,0.80
2022-08-02T21:34:02.090Z,0.68
2022-08-02T21:36:33.861Z,0.70
2022-08-02T21:39:05.922Z,0.80
2022-08-02T21:41:46.281Z,0.80
2022-08-02T21:44:17.288Z,0.98
2022-08-02T21:46:51.204Z,0.80
2022-08-02T21:49:21.017Z,0.70
2022-08-02T21:52:08.636Z,0.88
2022-08-02T21:54:39.967Z,0.65
2022-08-02T21:57:15.116Z,0.90
2022-08-02T21:59:47.295Z,0.80
2022-08-02T22:02:16.090Z,1.10
2022-08-02T22:04:47.803Z,1.00
2022-08-02T22:07:23.964Z,1.02
2022-08-02T22:09:55.719Z,0.90
2022-08-02T22:12:26.369Z,1.00
2022-08-02T22:14:56.936Z,0.95
2022-08-02T22:17:52.511Z,1.00
2022-08-02T22:20:18.368Z,1.00
2022-08-02T22:22:50.527Z,1.23
2022-08-02T22:25:26.803Z,1.25
2022-08-02T22:28:35.030Z,1.10
2022-08-02T22:30:57.469Z,1.35
2022-08-02T22:34:00.120Z,0.90
2022-08-02T22:36:32.156Z,0.93
2022-08-02T22:39:01.901Z,1.00
2022-08-02T22:42:01.507Z,0.80
2022-08-02T22:44:18.735Z,1.10
2022-08-02T22:46:50.165Z,0.90
2022-08-02T22:49:36.947Z,0.90
2022-08-02T22:52:07.931Z,0.80
2022-08-02T22:54:35.522Z,0.98
2022-08-02T22:57:02.312Z,1.05
2022-08-02T22:58:55.568Z,0.50
2022-08-02T22:58:55.695Z,0.50
2022-08-02T22:59:11.342Z,0.70
2022-08-02T22:59:39.319Z,1.00
2022-08-02T23:02:09.437Z,1.05
2022-08-02T23:04:38.961Z,0.75
2022-08-02T23:07:06.550Z,1.23
2022-08-02T23:09:35.135Z,1.15
2022-08-02T23:12:02.723Z,0.98
2022-08-02T23:14:30.317Z,1.15
2022-08-02T23:17:15.991Z,0.90
2022-08-02T23:19:54.624Z,0.98
2022-08-02T23:22:29.767Z,1.30
2022-08-02T23:25:01.862Z,2.17
2022-08-02T23:27:30.462Z,1.20
2022-08-02T23:29:59.048Z,0.80
2022-08-02T23:32:27.070Z,1.10
2022-08-02T23:34:56.239Z,1.00
2022-08-02T23:37:24.876Z,1.10
2022-08-02T23:39:52.441Z,0.90
2022-08-02T23:42:20.020Z,1.08
2022-08-02T23:44:47.609Z,1.27
2022-08-02T23:47:17.219Z,0.95
2022-08-02T23:49:44.948Z,1.13
2022-08-02T23:52:13.545Z,1.05
2022-08-02T23:54:40.991Z,1.00
2022-08-02T23:57:20.829Z,1.00
2022-08-02T23:59:51.348Z,1.02
